Time;durP1;ratioP1;P1;durP2;ratioP2;P2;SDS_P1;SDS_P2;PMS_P1;PMS_P2;Temp;Humidity;BMP_temperature;BMP_pressure;BME280_temperature;BME280_humidity;BME280_pressure;Samples;Min_cycle;Max_cycle;Signal;HPM_P1;HPM_P2
2021/12/08 00:00:36;;;;;;;65.53;9.68;;;;;;;;;;5001692;28;20206;-91
2021/12/08 00:03:03;;;;;;;66.50;10.38;;;;;;;;;;5001081;28;20233;-93
2021/12/08 00:05:30;;;;;;;65.70;10.23;;;;;;;;;;4999648;28;20226;-92
2021/12/08 00:07:59;;;;;;;65.95;10.25;;;;;;;;;;5000168;28;20255;-92
2021/12/08 00:10:52;;;;;;;65.88;10.25;;;;;;;;;;4999874;28;20204;-92
2021/12/08 00:13:17;;;;;;;66.05;10.00;;;;;;;;;;4999968;28;20236;-90
2021/12/08 00:15:45;;;;;;;68.28;10.40;;;;;;;;;;5000148;28;20211;-93
2021/12/08 00:18:13;;;;;;;67.80;10.15;;;;;;;;;;5000346;28;20194;-94
2021/12/08 00:20:41;;;;;;;66.68;10.07;;;;;;;;;;5001185;28;20210;-93
2021/12/08 00:23:09;;;;;;;64.70;8.65;;;;;;;;;;4999749;28;20228;-94
2021/12/08 00:25:36;;;;;;;65.47;10.10;;;;;;;;;;4999322;28;20195;-93
2021/12/08 00:28:04;;;;;;;66.00;10.70;;;;;;;;;;5000699;28;20256;-94
2021/12/08 00:30:30;;;;;;;67.68;10.75;;;;;;;;;;5001686;28;20631;-92
2021/12/08 00:32:58;;;;;;;66.65;10.32;;;;;;;;;;5001474;28;20644;-93
2021/12/08 00:35:26;;;;;;;65.63;9.95;;;;;;;;;;5000350;28;20214;-93
2021/12/08 00:37:53;;;;;;;66.53;9.82;;;;;;;;;;5000709;28;20209;-94
2021/12/08 00:40:21;;;;;;;66.25;9.77;;;;;;;;;;4999520;28;20198;-96
2021/12/08 00:42:48;;;;;;;66.95;10.20;;;;;;;;;;5000591;28;20203;-91
2021/12/08 00:45:18;;;;;;;65.47;9.70;;;;;;;;;;4999321;28;20296;-94
2021/12/08 00:47:45;;;;;;;67.40;10.13;;;;;;;;;;4999532;28;20239;-93
2021/12/08 00:50:12;;;;;;;65.63;9.88;;;;;;;;;;4999115;28;20200;-92
2021/12/08 00:52:39;;;;;;;66.57;9.70;;;;;;;;;;4999543;28;20229;-92
2021/12/08 00:55:06;;;;;;;66.47;9.68;;;;;;;;;;4991238;28;20196;-92
2021/12/08 00:57:34;;;;;;;66.22;10.52;;;;;;;;;;4998903;28;20723;-93
2021/12/08 01:00:03;;;;;;;66.38;10.15;;;;;;;;;;4998431;28;20219;-94
2021/12/08 01:02:29;;;;;;;65.55;10.38;;;;;;;;;;4999171;28;20204;-94
2021/12/08 01:04:57;;;;;;;66.70;10.43;;;;;;;;;;5000178;28;20196;-93
2021/12/08 01:07:23;;;;;;;65.93;9.52;;;;;;;;;;5000703;28;20200;-91
2021/12/08 01:09:50;;;;;;;65.75;9.55;;;;;;;;;;4999765;28;20227;-93
2021/12/08 01:12:16;;;;;;;64.60;9.65;;;;;;;;;;4999589;28;20199;-92
2021/12/08 01:14:44;;;;;;;65.40;9.88;;;;;;;;;;4999850;28;20214;-92
2021/12/08 01:17:10;;;;;;;65.30;9.90;;;;;;;;;;5000475;28;21156;-93
2021/12/08 01:19:37;;;;;;;65.20;9.63;;;;;;;;;;5000287;28;20249;-91
2021/12/08 01:22:04;;;;;;;65.28;9.60;;;;;;;;;;4998137;28;20300;-95
2021/12/08 01:24:31;;;;;;;65.22;9.90;;;;;;;;;;4998654;28;20636;-92
2021/12/08 01:26:58;;;;;;;66.65;10.27;;;;;;;;;;4998986;28;20205;-91
2021/12/08 01:29:24;;;;;;;67.20;9.85;;;;;;;;;;4997361;28;20206;-93
2021/12/08 01:31:52;;;;;;;65.85;9.52;;;;;;;;;;5000204;28;20213;-92
2021/12/08 01:34:19;;;;;;;65.03;9.70;;;;;;;;;;5000904;28;20267;-91
2021/12/08 01:36:45;;;;;;;67.03;9.90;;;;;;;;;;5000597;28;20734;-93
2021/12/08 01:39:12;;;;;;;68.63;9.93;;;;;;;;;;5000792;28;20203;-94
2021/12/08 01:41:39;;;;;;;66.18;9.98;;;;;;;;;;5003449;28;20201;-93
2021/12/08 01:46:51;;;;;;;65.60;9.80;;;;;;;;;;5004539;28;20603;-92
2021/12/08 01:49:19;;;;;;;68.50;9.65;;;;;;;;;;4997910;28;20223;-93
2021/12/08 01:51:46;;;;;;;67.43;10.40;;;;;;;;;;4998171;28;20207;-91
2021/12/08 01:54:12;;;;;;;66.40;9.30;;;;;;;;;;4999431;28;20218;-93
2021/12/08 01:56:39;;;;;;;65.75;9.88;;;;;;;;;;4998854;28;20232;-92
2021/12/08 01:59:07;;;;;;;66.00;10.20;;;;;;;;;;4999254;28;20263;-92
2021/12/08 02:01:34;;;;;;;65.70;10.18;;;;;;;;;;4998067;28;20207;-92
2021/12/08 02:04:04;;;;;;;67.10;10.13;;;;;;;;;;4999865;28;20615;-92
2021/12/08 02:06:32;;;;;;;65.88;10.30;;;;;;;;;;4999515;28;20208;-92
2021/12/08 02:08:59;;;;;;;66.43;10.35;;;;;;;;;;4999084;28;20230;-92
2021/12/08 02:11:25;;;;;;;66.43;10.68;;;;;;;;;;4997807;28;20214;-92
2021/12/08 02:13:59;;;;;;;67.50;10.00;;;;;;;;;;5001376;28;20557;-95
2021/12/08 02:16:26;;;;;;;66.55;10.68;;;;;;;;;;5002270;28;20203;-94
2021/12/08 02:18:53;;;;;;;70.00;9.95;;;;;;;;;;5003461;28;20969;-93
2021/12/08 02:21:22;;;;;;;65.85;9.98;;;;;;;;;;5002890;28;20239;-94
2021/12/08 02:23:48;;;;;;;67.03;10.68;;;;;;;;;;5002782;28;20246;-96
2021/12/08 02:26:15;;;;;;;66.90;10.50;;;;;;;;;;5002496;28;20204;-91
2021/12/08 02:28:41;;;;;;;65.75;8.90;;;;;;;;;;5003328;28;20658;-92
2021/12/08 02:31:12;;;;;;;66.60;9.95;;;;;;;;;;5002979;28;20198;-94
2021/12/08 02:47:31;;;;;;;66.85;9.63;;;;;;;;;;4999364;28;20253;-93
2021/12/08 02:49:58;;;;;;;75.13;10.98;;;;;;;;;;4996531;28;20196;-93
2021/12/08 02:52:26;;;;;;;66.47;9.98;;;;;;;;;;4996809;28;20201;-92
2021/12/08 02:54:53;;;;;;;67.53;10.43;;;;;;;;;;4997461;28;20261;-92
2021/12/08 02:57:20;;;;;;;67.55;10.48;;;;;;;;;;4997089;28;20254;-92
2021/12/08 02:59:47;;;;;;;66.60;10.25;;;;;;;;;;4998953;28;20211;-92
2021/12/08 03:02:14;;;;;;;66.90;10.20;;;;;;;;;;5000897;28;20495;-92
2021/12/08 03:04:40;;;;;;;68.55;10.10;;;;;;;;;;4999340;28;20196;-94
2021/12/08 03:07:07;;;;;;;68.15;11.02;;;;;;;;;;5000939;28;20196;-91
2021/12/08 03:09:36;;;;;;;66.53;9.80;;;;;;;;;;5000880;28;20208;-91
2021/12/08 03:12:03;;;;;;;69.53;10.23;;;;;;;;;;4999666;28;20211;-92
2021/12/08 03:14:30;;;;;;;65.45;9.40;;;;;;;;;;5002266;28;20226;-92
2021/12/08 03:16:59;;;;;;;65.53;9.75;;;;;;;;;;5001842;28;20203;-93
2021/12/08 03:19:26;;;;;;;68.05;9.90;;;;;;;;;;5001283;28;20762;-92
2021/12/08 03:21:53;;;;;;;67.55;9.90;;;;;;;;;;5000804;28;20231;-92
2021/12/08 03:24:25;;;;;;;64.70;9.20;;;;;;;;;;5002004;28;20225;-92
2021/12/08 03:27:04;;;;;;;67.57;10.35;;;;;;;;;;5001589;28;20207;-89
2021/12/08 03:29:36;;;;;;;67.22;10.70;;;;;;;;;;5001723;28;20200;-93
2021/12/08 03:32:08;;;;;;;70.47;11.00;;;;;;;;;;5001258;28;20219;-92
2021/12/08 03:34:37;;;;;;;68.78;11.13;;;;;;;;;;5001096;28;20223;-95
2021/12/08 03:37:04;;;;;;;66.65;10.07;;;;;;;;;;5001150;28;20207;-91
2021/12/08 03:39:31;;;;;;;69.00;10.63;;;;;;;;;;5002051;28;20247;-94
2021/12/08 03:41:59;;;;;;;69.95;11.18;;;;;;;;;;5001453;28;20228;-92
2021/12/08 03:44:25;;;;;;;67.28;11.40;;;;;;;;;;5001864;28;20218;-92
2021/12/08 03:46:54;;;;;;;70.53;11.77;;;;;;;;;;5000425;28;20193;-94
2021/12/08 03:49:21;;;;;;;67.50;10.70;;;;;;;;;;5002001;28;20191;-93
2021/12/08 03:51:47;;;;;;;69.93;10.52;;;;;;;;;;5001833;28;20224;-94
2021/12/08 03:54:14;;;;;;;68.70;10.80;;;;;;;;;;5001239;28;20245;-92
2021/12/08 03:56:41;;;;;;;70.20;10.95;;;;;;;;;;5001654;28;20231;-93
2021/12/08 03:59:08;;;;;;;68.00;11.23;;;;;;;;;;5001295;28;20204;-91
2021/12/08 04:01:35;;;;;;;67.97;10.10;;;;;;;;;;4999663;28;20231;-94
2021/12/08 04:04:06;;;;;;;69.32;11.35;;;;;;;;;;5000746;28;20202;-92
2021/12/08 04:06:39;;;;;;;69.63;11.10;;;;;;;;;;5000661;28;20235;-95
2021/12/08 04:09:14;;;;;;;70.13;11.65;;;;;;;;;;5000617;28;20236;-92
2021/12/08 04:11:40;;;;;;;68.67;11.87;;;;;;;;;;5000481;28;20230;-95
2021/12/08 04:14:08;;;;;;;66.50;11.40;;;;;;;;;;5001414;28;20487;-92
2021/12/08 04:16:37;;;;;;;67.97;10.65;;;;;;;;;;5000649;28;20209;-92
2021/12/08 04:19:05;;;;;;;70.25;11.95;;;;;;;;;;4999488;28;20199;-92
2021/12/08 04:21:31;;;;;;;72.03;12.82;;;;;;;;;;4998461;28;20196;-94
2021/12/08 04:23:58;;;;;;;72.10;13.60;;;;;;;;;;4996551;28;20215;-96
2021/12/08 04:26:27;;;;;;;73.95;12.82;;;;;;;;;;4999780;28;20215;-92
2021/12/08 04:28:54;;;;;;;72.43;12.93;;;;;;;;;;5000188;28;20689;-94
2021/12/08 04:31:22;;;;;;;71.38;14.07;;;;;;;;;;5000552;28;20208;-93
2021/12/08 04:33:53;;;;;;;74.22;14.43;;;;;;;;;;5001301;28;20220;-93
2021/12/08 04:36:21;;;;;;;74.00;14.88;;;;;;;;;;4999580;28;20190;-90
2021/12/08 04:38:52;;;;;;;75.68;15.50;;;;;;;;;;4998741;28;20267;-94
2021/12/08 04:41:23;;;;;;;76.80;14.73;;;;;;;;;;4997323;28;20720;-95
2021/12/08 04:43:56;;;;;;;73.65;14.60;;;;;;;;;;5000178;28;20221;-93
2021/12/08 04:46:40;;;;;;;74.15;13.95;;;;;;;;;;5000862;28;20652;-94
2021/12/08 04:49:26;;;;;;;73.80;14.38;;;;;;;;;;5000853;28;20263;-92
2021/12/08 04:51:58;;;;;;;74.25;14.32;;;;;;;;;;5000019;28;21354;-95
2021/12/08 05:00:27;;;;;;;75.40;15.02;;;;;;;;;;5000648;28;20215;-96
2021/12/08 05:06:04;;;;;;;77.85;15.80;;;;;;;;;;4989380;28;20200;-92
2021/12/08 05:08:40;;;;;;;76.22;16.02;;;;;;;;;;4999285;28;20201;-92
2021/12/08 05:11:08;;;;;;;78.70;16.92;;;;;;;;;;4998602;28;20207;-93
2021/12/08 05:13:35;;;;;;;77.15;15.98;;;;;;;;;;5000869;28;20303;-93
2021/12/08 05:16:01;;;;;;;75.50;16.27;;;;;;;;;;5002102;28;20203;-93
2021/12/08 05:18:30;;;;;;;79.57;16.63;;;;;;;;;;5000444;28;20207;-95
2021/12/08 05:21:02;;;;;;;77.55;16.17;;;;;;;;;;4999269;28;20197;-94
2021/12/08 05:23:31;;;;;;;79.07;16.90;;;;;;;;;;5008554;28;20192;-93
2021/12/08 05:25:58;;;;;;;78.95;17.38;;;;;;;;;;5007665;28;20221;-90
2021/12/08 05:28:26;;;;;;;85.45;18.65;;;;;;;;;;5002078;28;20223;-91
2021/12/08 05:30:54;;;;;;;81.35;16.98;;;;;;;;;;4999762;28;20619;-91
2021/12/08 05:33:21;;;;;;;78.90;17.27;;;;;;;;;;4999488;28;20198;-92
2021/12/08 05:35:47;;;;;;;83.65;17.80;;;;;;;;;;4999955;28;20200;-94
2021/12/08 05:38:17;;;;;;;82.03;18.15;;;;;;;;;;4999139;28;20954;-94
2021/12/08 05:40:45;;;;;;;79.78;16.20;;;;;;;;;;4997639;28;20204;-94
2021/12/08 05:43:12;;;;;;;79.03;16.60;;;;;;;;;;4997144;28;20212;-94
2021/12/08 05:45:39;;;;;;;81.82;17.75;;;;;;;;;;4998043;28;20480;-95
2021/12/08 05:48:06;;;;;;;80.25;16.98;;;;;;;;;;4998992;28;20194;-96
2021/12/08 05:50:34;;;;;;;80.97;18.03;;;;;;;;;;5004416;28;20223;-94
2021/12/08 05:53:00;;;;;;;81.95;18.35;;;;;;;;;;5002339;28;20461;-94
2021/12/08 05:55:28;;;;;;;79.13;16.40;;;;;;;;;;5002534;28;20236;-96
2021/12/08 05:57:57;;;;;;;83.63;18.15;;;;;;;;;;5001898;28;20245;-95
2021/12/08 06:00:25;;;;;;;82.18;18.67;;;;;;;;;;5003604;28;20198;-95
2021/12/08 06:02:53;;;;;;;83.07;18.45;;;;;;;;;;5007484;28;20195;-96
2021/12/08 06:05:19;;;;;;;85.30;20.58;;;;;;;;;;5006477;28;20227;-96
2021/12/08 06:07:46;;;;;;;82.45;19.02;;;;;;;;;;5003283;28;20208;-96
2021/12/08 06:10:15;;;;;;;82.88;20.48;;;;;;;;;;5011898;28;20185;-96
2021/12/08 06:12:44;;;;;;;84.55;19.50;;;;;;;;;;5007913;28;20211;-96
2021/12/08 06:15:11;;;;;;;82.43;19.10;;;;;;;;;;5010948;28;20232;-96
2021/12/08 06:17:37;;;;;;;80.57;19.42;;;;;;;;;;5006041;28;20200;-96
2021/12/08 06:20:09;;;;;;;83.80;19.00;;;;;;;;;;5005077;28;20208;-95
2021/12/08 06:22:36;;;;;;;80.10;17.65;;;;;;;;;;4985999;28;20201;-95
2021/12/08 06:25:03;;;;;;;88.05;18.52;;;;;;;;;;5001792;28;20204;-96
2021/12/08 06:27:29;;;;;;;85.18;19.52;;;;;;;;;;5002223;28;20205;-96
2021/12/08 06:29:57;;;;;;;84.00;19.77;;;;;;;;;;5005140;28;20209;-96
2021/12/08 06:32:24;;;;;;;88.45;21.15;;;;;;;;;;5000162;28;20482;-94
2021/12/08 06:34:53;;;;;;;85.50;19.98;;;;;;;;;;4999486;28;20256;-94
2021/12/08 06:37:21;;;;;;;87.85;20.23;;;;;;;;;;5000736;28;20264;-95
2021/12/08 06:39:50;;;;;;;89.40;20.60;;;;;;;;;;5002906;28;20218;-95
2021/12/08 06:42:19;;;;;;;86.78;20.08;;;;;;;;;;5004493;28;20233;-95
2021/12/08 06:44:47;;;;;;;87.82;20.85;;;;;;;;;;5004654;28;20228;-94
2021/12/08 06:47:19;;;;;;;82.50;18.95;;;;;;;;;;5003642;28;20269;-93
2021/12/08 06:49:47;;;;;;;88.57;20.95;;;;;;;;;;5004142;28;20198;-94
2021/12/08 06:52:17;;;;;;;94.47;21.87;;;;;;;;;;5003546;28;20198;-95
2021/12/08 06:54:46;;;;;;;86.97;20.40;;;;;;;;;;5003498;28;20510;-95
2021/12/08 06:57:17;;;;;;;83.10;19.85;;;;;;;;;;5002407;28;21002;-93
2021/12/08 06:59:55;;;;;;;86.53;20.90;;;;;;;;;;5002708;28;20201;-94
2021/12/08 07:02:47;;;;;;;88.00;19.70;;;;;;;;;;5003017;28;20201;-93
2021/12/08 07:05:14;;;;;;;89.05;20.95;;;;;;;;;;5003310;28;20204;-91
2021/12/08 07:07:43;;;;;;;85.00;20.30;;;;;;;;;;5001786;28;20204;-92
2021/12/08 07:10:11;;;;;;;86.27;20.80;;;;;;;;;;5003033;28;20458;-95
2021/12/08 07:12:39;;;;;;;86.38;20.92;;;;;;;;;;5002706;28;20453;-92
2021/12/08 07:15:09;;;;;;;91.82;22.45;;;;;;;;;;5002273;28;20253;-94
2021/12/08 07:17:38;;;;;;;91.68;22.33;;;;;;;;;;5006252;28;20200;-96
2021/12/08 07:20:16;;;;;;;90.15;21.92;;;;;;;;;;5002999;28;20214;-96
2021/12/08 07:22:44;;;;;;;85.32;19.52;;;;;;;;;;5002099;28;20200;-96
2021/12/08 07:25:12;;;;;;;86.82;21.33;;;;;;;;;;5003043;28;20248;-93
2021/12/08 07:27:39;;;;;;;88.68;21.70;;;;;;;;;;5001337;28;20200;-96
2021/12/08 07:30:09;;;;;;;87.87;20.90;;;;;;;;;;5001668;28;20903;-95
2021/12/08 07:32:50;;;;;;;88.00;20.95;;;;;;;;;;5002610;28;20487;-95
2021/12/08 07:35:21;;;;;;;90.77;22.60;;;;;;;;;;5005512;28;20269;-93
2021/12/08 07:37:49;;;;;;;93.07;21.85;;;;;;;;;;5002675;28;20469;-94
2021/12/08 07:40:19;;;;;;;85.78;19.35;;;;;;;;;;5002738;28;20193;-96
2021/12/08 07:42:47;;;;;;;87.30;20.83;;;;;;;;;;5005044;28;20257;-96
2021/12/08 07:45:17;;;;;;;84.30;19.40;;;;;;;;;;5003212;28;20201;-95
2021/12/08 07:47:44;;;;;;;87.73;21.00;;;;;;;;;;5002236;28;20452;-95
2021/12/08 07:50:12;;;;;;;89.07;22.90;;;;;;;;;;5001784;28;20449;-96
2021/12/08 07:52:43;;;;;;;96.23;25.60;;;;;;;;;;5006284;28;20441;-95
2021/12/08 07:55:12;;;;;;;85.30;20.77;;;;;;;;;;5003567;28;20479;-92
2021/12/08 07:57:39;;;;;;;82.97;20.40;;;;;;;;;;5002455;28;20891;-93
2021/12/08 08:00:07;;;;;;;87.40;20.37;;;;;;;;;;5002942;28;20449;-95
2021/12/08 08:02:34;;;;;;;83.03;19.73;;;;;;;;;;5002756;28;20511;-94
2021/12/08 08:05:04;;;;;;;80.47;19.00;;;;;;;;;;5002576;28;20217;-94
2021/12/08 08:07:31;;;;;;;84.07;21.30;;;;;;;;;;5004050;28;20443;-94
2021/12/08 08:10:13;;;;;;;83.38;19.88;;;;;;;;;;4999412;28;20457;-96
2021/12/08 08:12:41;;;;;;;90.10;21.57;;;;;;;;;;5011579;28;20198;-96
2021/12/08 08:15:10;;;;;;;84.87;20.47;;;;;;;;;;5007609;28;20496;-96
2021/12/08 08:17:41;;;;;;;83.30;20.20;;;;;;;;;;4995046;28;20544;-94
2021/12/08 08:20:10;;;;;;;84.90;19.42;;;;;;;;;;4993584;28;20485;-94
2021/12/08 08:22:36;;;;;;;84.40;20.43;;;;;;;;;;4995574;28;20248;-96
2021/12/08 08:25:06;;;;;;;83.07;19.53;;;;;;;;;;4996498;28;20449;-95
2021/12/08 08:27:33;;;;;;;85.93;20.30;;;;;;;;;;4996746;28;20437;-92
2021/12/08 08:30:02;;;;;;;86.53;20.77;;;;;;;;;;4997802;28;20516;-93
2021/12/08 08:32:32;;;;;;;91.87;21.77;;;;;;;;;;4998815;28;20463;-94
2021/12/08 08:35:04;;;;;;;86.60;21.40;;;;;;;;;;5000180;28;20477;-94
2021/12/08 08:37:30;;;;;;;85.90;21.40;;;;;;;;;;4998042;28;20445;-93
2021/12/08 08:39:59;;;;;;;86.00;21.17;;;;;;;;;;4998438;28;20971;-94
2021/12/08 08:42:28;;;;;;;81.00;19.13;;;;;;;;;;4999738;28;20492;-96
2021/12/08 08:44:58;;;;;;;86.50;21.07;;;;;;;;;;5002216;28;20481;-96
2021/12/08 08:47:26;;;;;;;84.13;19.87;;;;;;;;;;5000969;28;20453;-95
2021/12/08 08:49:53;;;;;;;83.53;20.60;;;;;;;;;;5001257;28;20453;-95
2021/12/08 08:52:22;;;;;;;83.23;20.20;;;;;;;;;;5013288;28;20461;-95
2021/12/08 08:54:50;;;;;;;88.67;21.30;;;;;;;;;;5012167;28;20512;-94
2021/12/08 08:57:21;;;;;;;87.63;21.33;;;;;;;;;;5004203;28;20492;-95
2021/12/08 08:59:50;;;;;;;85.20;21.03;;;;;;;;;;5001508;28;20449;-96
2021/12/08 09:02:18;;;;;;;90.30;21.20;;;;;;;;;;4998570;28;20441;-92
2021/12/08 09:04:46;;;;;;;86.73;20.07;;;;;;;;;;4999951;28;20449;-95
2021/12/08 09:07:14;;;;;;;85.37;20.50;;;;;;;;;;5000235;28;20474;-95
2021/12/08 09:09:43;;;;;;;85.47;20.60;;;;;;;;;;4999160;28;20476;-93
2021/12/08 09:12:11;;;;;;;87.40;21.53;;;;;;;;;;4999078;28;20515;-94
2021/12/08 09:14:40;;;;;;;85.97;20.80;;;;;;;;;;4999854;28;20489;-92
2021/12/08 09:17:09;;;;;;;79.87;17.50;;;;;;;;;;4999454;28;20467;-92
2021/12/08 09:19:41;;;;;;;79.53;18.03;;;;;;;;;;5000171;28;20441;-93
2021/12/08 09:22:09;;;;;;;81.70;19.17;;;;;;;;;;5000347;28;20461;-95
2021/12/08 09:24:38;;;;;;;81.60;18.17;;;;;;;;;;4998882;28;20445;-94
2021/12/08 09:27:06;;;;;;;84.40;19.63;;;;;;;;;;4999516;28;20497;-92
2021/12/08 09:29:40;;;;;;;83.70;21.20;;;;;;;;;;4998147;28;21027;-93
2021/12/08 09:32:10;;;;;;;86.60;19.30;;;;;;;;;;4997288;28;20453;-93
2021/12/08 09:34:38;;;;;;;84.50;21.53;;;;;;;;;;4997694;28;20432;-94
2021/12/08 09:37:07;;;;;;;84.20;19.70;;;;;;;;;;4997157;28;20445;-94
2021/12/08 09:39:35;;;;;;;85.60;19.17;;;;;;;;;;4998410;28;20508;-94
2021/12/08 09:42:06;;;;;;;85.93;20.40;;;;;;;;;;4998413;28;20471;-93
2021/12/08 09:44:35;;;;;;;84.47;20.27;;;;;;;;;;5000078;28;20443;-94
2021/12/08 09:47:01;;;;;;;83.30;19.13;;;;;;;;;;4999779;28;20449;-92
2021/12/08 09:49:29;;;;;;;93.37;22.40;;;;;;;;;;4999672;28;20453;-93
2021/12/08 09:51:57;;;;;;;83.20;19.60;;;;;;;;;;4999496;28;20445;-91
2021/12/08 09:54:24;;;;;;;81.87;18.93;;;;;;;;;;4998157;28;20531;-94
2021/12/08 09:56:52;;;;;;;82.37;19.20;;;;;;;;;;4996813;28;20547;-92
2021/12/08 09:59:19;;;;;;;84.77;20.30;;;;;;;;;;4998792;28;20505;-93
2021/12/08 10:01:50;;;;;;;84.37;19.83;;;;;;;;;;4999180;28;20461;-91
2021/12/08 10:04:17;;;;;;;77.97;17.83;;;;;;;;;;4995762;28;20468;-92
2021/12/08 10:06:49;;;;;;;83.90;19.43;;;;;;;;;;4994511;28;20492;-94
2021/12/08 10:09:16;;;;;;;82.07;19.47;;;;;;;;;;4996226;28;20456;-95
2021/12/08 10:11:42;;;;;;;80.40;17.67;;;;;;;;;;4994469;28;20507;-92
2021/12/08 10:14:09;;;;;;;81.57;17.83;;;;;;;;;;4995726;28;21061;-92
2021/12/08 10:16:36;;;;;;;81.97;19.33;;;;;;;;;;4999717;28;20493;-95
2021/12/08 10:19:05;;;;;;;84.40;18.47;;;;;;;;;;4998775;28;20457;-91
2021/12/08 10:21:32;;;;;;;80.90;17.60;;;;;;;;;;4998221;28;20444;-93
2021/12/08 10:24:00;;;;;;;76.77;17.77;;;;;;;;;;4998724;28;20511;-91
2021/12/08 10:26:27;;;;;;;84.70;18.53;;;;;;;;;;4999168;28;20453;-93
2021/12/08 10:28:54;;;;;;;79.97;18.80;;;;;;;;;;4999139;28;20448;-92
2021/12/08 10:31:26;;;;;;;81.13;18.30;;;;;;;;;;4999417;28;20476;-91
2021/12/08 10:34:01;;;;;;;80.90;17.97;;;;;;;;;;4998870;28;20455;-91
2021/12/08 10:36:45;;;;;;;83.40;18.40;;;;;;;;;;5001306;28;20491;-92
2021/12/08 10:39:15;;;;;;;81.37;18.30;;;;;;;;;;5002762;28;20516;-92
2021/12/08 10:41:49;;;;;;;81.50;17.87;;;;;;;;;;5001887;28;20480;-96
2021/12/08 10:44:17;;;;;;;81.23;18.03;;;;;;;;;;5002539;28;20439;-92
2021/12/08 10:46:43;;;;;;;79.27;15.83;;;;;;;;;;5002069;28;20449;-94
2021/12/08 10:49:19;;;;;;;82.60;17.90;;;;;;;;;;5001391;28;20445;-91
2021/12/08 10:54:32;;;;;;;80.10;17.23;;;;;;;;;;5001655;28;20436;-92
2021/12/08 10:57:00;;;;;;;80.80;16.60;;;;;;;;;;5001915;28;20534;-92
2021/12/08 10:59:27;;;;;;;79.23;17.63;;;;;;;;;;5002479;28;20475;-91
2021/12/08 11:01:59;;;;;;;81.00;16.67;;;;;;;;;;5001913;28;20729;-92
2021/12/08 11:04:29;;;;;;;77.90;16.83;;;;;;;;;;5002372;28;20509;-92
2021/12/08 11:07:03;;;;;;;81.03;17.77;;;;;;;;;;5002323;28;20504;-92
2021/12/08 11:09:39;;;;;;;83.97;17.57;;;;;;;;;;5000450;28;20549;-90
2021/12/08 11:12:05;;;;;;;77.40;16.80;;;;;;;;;;5002755;28;20448;-90
2021/12/08 11:14:42;;;;;;;80.70;18.00;;;;;;;;;;5001349;28;20452;-94
2021/12/08 11:17:23;;;;;;;80.40;18.77;;;;;;;;;;5000805;28;20492;-94
2021/12/08 11:19:49;;;;;;;78.20;17.77;;;;;;;;;;5000755;28;20457;-93
2021/12/08 11:22:17;;;;;;;78.80;17.93;;;;;;;;;;5000036;28;20476;-92
2021/12/08 11:24:46;;;;;;;85.33;18.93;;;;;;;;;;5000562;28;20452;-94
2021/12/08 11:27:28;;;;;;;83.03;18.17;;;;;;;;;;5000639;28;20453;-92
2021/12/08 11:29:54;;;;;;;77.97;17.07;;;;;;;;;;5002025;28;20445;-91
2021/12/08 11:32:24;;;;;;;82.03;17.50;;;;;;;;;;5002366;28;20476;-95
2021/12/08 11:34:51;;;;;;;79.60;17.30;;;;;;;;;;5000097;28;20444;-92
2021/12/08 11:37:19;;;;;;;81.50;18.23;;;;;;;;;;5002976;28;20488;-92
2021/12/08 11:39:48;;;;;;;80.47;18.37;;;;;;;;;;5002662;28;21087;-96
2021/12/08 11:42:16;;;;;;;80.37;17.80;;;;;;;;;;5003542;28;20511;-95
2021/12/08 11:44:43;;;;;;;81.13;17.80;;;;;;;;;;4999658;28;20480;-96
2021/12/08 11:47:11;;;;;;;77.73;17.57;;;;;;;;;;4998925;28;20449;-95
2021/12/08 11:49:40;;;;;;;80.23;16.70;;;;;;;;;;5000788;28;20445;-93
2021/12/08 11:52:13;;;;;;;78.20;17.17;;;;;;;;;;5000927;28;20445;-94
2021/12/08 11:54:42;;;;;;;82.07;17.80;;;;;;;;;;5001742;28;20436;-93
2021/12/08 11:57:16;;;;;;;78.70;17.10;;;;;;;;;;5001229;28;22247;-95
2021/12/08 11:59:53;;;;;;;77.80;17.30;;;;;;;;;;5001115;28;20471;-93
2021/12/08 12:02:21;;;;;;;77.37;16.83;;;;;;;;;;5004451;28;20435;-94
2021/12/08 12:04:48;;;;;;;85.87;17.10;;;;;;;;;;5011536;28;20440;-92
2021/12/08 12:07:15;;;;;;;81.90;17.33;;;;;;;;;;5005327;28;20449;-92
2021/12/08 12:09:42;;;;;;;80.73;17.10;;;;;;;;;;4999356;28;20445;-94
2021/12/08 12:12:09;;;;;;;75.80;16.37;;;;;;;;;;4999508;28;20448;-93
2021/12/08 12:14:37;;;;;;;81.27;17.70;;;;;;;;;;5000361;28;20457;-93
2021/12/08 12:17:06;;;;;;;79.77;17.63;;;;;;;;;;5001863;28;20493;-96
2021/12/08 12:19:36;;;;;;;74.13;16.30;;;;;;;;;;5004707;28;20445;-95
2021/12/08 12:22:06;;;;;;;83.17;18.40;;;;;;;;;;5002684;28;20441;-96
2021/12/08 12:24:48;;;;;;;75.07;15.57;;;;;;;;;;5002871;28;20453;-96
2021/12/08 12:27:29;;;;;;;77.90;17.70;;;;;;;;;;4996587;28;20479;-92
2021/12/08 12:30:05;;;;;;;77.77;17.13;;;;;;;;;;4998562;28;20464;-94
2021/12/08 12:32:32;;;;;;;76.10;16.93;;;;;;;;;;4997832;28;20444;-94
2021/12/08 12:35:09;;;;;;;77.10;17.90;;;;;;;;;;4999200;28;20481;-95
2021/12/08 12:37:37;;;;;;;77.27;17.67;;;;;;;;;;4998771;28;20492;-96
2021/12/08 12:40:06;;;;;;;74.17;15.70;;;;;;;;;;4999953;28;20550;-94
2021/12/08 12:42:43;;;;;;;75.37;17.50;;;;;;;;;;5000099;28;20519;-96
2021/12/08 12:45:13;;;;;;;76.57;16.90;;;;;;;;;;5000993;28;20456;-96
2021/12/08 12:47:40;;;;;;;75.20;16.70;;;;;;;;;;5000039;28;20449;-96
2021/12/08 12:50:21;;;;;;;75.40;15.70;;;;;;;;;;5000011;28;20445;-94
2021/12/08 12:52:52;;;;;;;79.93;17.13;;;;;;;;;;5000266;28;20449;-94
2021/12/08 12:55:20;;;;;;;76.53;16.77;;;;;;;;;;4999469;28;20456;-94
2021/12/08 12:58:16;;;;;;;77.17;16.60;;;;;;;;;;4998770;28;20587;-95
2021/12/08 13:00:45;;;;;;;77.30;16.83;;;;;;;;;;4975826;28;20818;-94
2021/12/08 13:03:26;;;;;;;75.97;16.70;;;;;;;;;;4999665;28;20488;-96
2021/12/08 13:05:53;;;;;;;73.67;15.60;;;;;;;;;;4999105;28;20527;-96
2021/12/08 13:08:29;;;;;;;75.63;15.90;;;;;;;;;;4999384;28;20445;-96
2021/12/08 13:10:56;;;;;;;75.67;17.67;;;;;;;;;;4998387;28;20476;-94
2021/12/08 13:13:22;;;;;;;80.00;18.60;;;;;;;;;;4998440;28;20449;-96
2021/12/08 13:15:50;;;;;;;79.87;17.20;;;;;;;;;;4999744;28;20459;-95
2021/12/08 13:18:17;;;;;;;78.40;17.33;;;;;;;;;;4998798;28;20477;-96
2021/12/08 13:20:45;;;;;;;81.27;18.30;;;;;;;;;;4998637;28;20441;-94
2021/12/08 13:23:13;;;;;;;80.03;19.57;;;;;;;;;;4998387;28;20478;-93
2021/12/08 13:25:49;;;;;;;82.60;20.80;;;;;;;;;;4996766;28;20524;-95
2021/12/08 13:28:18;;;;;;;78.03;19.00;;;;;;;;;;4997525;28;20457;-96
2021/12/08 13:30:46;;;;;;;78.50;18.70;;;;;;;;;;4996591;28;20861;-95
2021/12/08 13:33:32;;;;;;;77.37;17.27;;;;;;;;;;4995955;28;20503;-93
2021/12/08 13:36:01;;;;;;;78.87;18.27;;;;;;;;;;4997792;28;20476;-93
2021/12/08 13:38:27;;;;;;;76.50;16.90;;;;;;;;;;4994902;28;20465;-95
2021/12/08 13:40:55;;;;;;;78.40;18.00;;;;;;;;;;4996553;28;20461;-93
2021/12/08 13:43:36;;;;;;;80.27;18.50;;;;;;;;;;4998828;28;20642;-95
2021/12/08 13:46:02;;;;;;;79.30;20.10;;;;;;;;;;4999425;28;20961;-94
2021/12/08 13:48:29;;;;;;;81.20;18.90;;;;;;;;;;4998627;28;20445;-95
2021/12/08 13:51:13;;;;;;;81.30;19.40;;;;;;;;;;4995940;28;20453;-96
2021/12/08 13:53:40;;;;;;;79.27;18.13;;;;;;;;;;4994593;28;20452;-94
2021/12/08 13:56:07;;;;;;;78.47;18.20;;;;;;;;;;4992385;28;20472;-94
2021/12/08 13:58:37;;;;;;;80.33;20.20;;;;;;;;;;4994034;28;20488;-95
2021/12/08 14:01:04;;;;;;;86.63;18.90;;;;;;;;;;4997997;28;20475;-96
2021/12/08 14:03:35;;;;;;;82.00;20.27;;;;;;;;;;4998594;28;20445;-93
2021/12/08 14:06:02;;;;;;;79.40;16.83;;;;;;;;;;4997250;28;20884;-94
2021/12/08 14:08:30;;;;;;;76.47;17.57;;;;;;;;;;4992855;28;20460;-95
2021/12/08 14:10:59;;;;;;;82.77;17.43;;;;;;;;;;4996186;28;20524;-96
2021/12/08 14:13:27;;;;;;;80.70;18.73;;;;;;;;;;4995673;28;20453;-95
2021/12/08 14:15:56;;;;;;;85.23;20.40;;;;;;;;;;4996218;28;20618;-95
2021/12/08 14:18:24;;;;;;;84.30;19.60;;;;;;;;;;4999190;28;20875;-96
2021/12/08 14:20:52;;;;;;;85.97;20.17;;;;;;;;;;5001858;28;20451;-95
2021/12/08 14:23:19;;;;;;;85.63;19.70;;;;;;;;;;5001846;28;21000;-96
2021/12/08 14:25:49;;;;;;;83.90;20.00;;;;;;;;;;4994958;28;20452;-96
2021/12/08 14:28:38;;;;;;;80.20;20.10;;;;;;;;;;5000455;28;20440;-96
2021/12/08 14:31:07;;;;;;;80.97;19.77;;;;;;;;;;5003363;28;20456;-95
2021/12/08 14:33:34;;;;;;;82.07;20.00;;;;;;;;;;5001759;28;21388;-96
2021/12/08 14:36:02;;;;;;;89.97;19.73;;;;;;;;;;4999470;28;20448;-96
2021/12/08 14:38:38;;;;;;;79.87;18.37;;;;;;;;;;5005898;28;20485;-96
2021/12/08 14:41:23;;;;;;;80.80;18.27;;;;;;;;;;5017799;28;20533;-96
2021/12/08 14:43:54;;;;;;;85.10;19.50;;;;;;;;;;5016649;28;20520;-96
2021/12/08 14:49:05;;;;;;;83.80;21.17;;;;;;;;;;5015817;28;20444;-96
2021/12/08 14:57:07;;;;;;;85.97;21.30;;;;;;;;;;5863816;23;20476;-96
2021/12/08 14:59:36;;;;;;;87.90;22.57;;;;;;;;;;4999069;28;20449;-93
2021/12/08 15:02:03;;;;;;;85.93;21.30;;;;;;;;;;4999672;28;20447;-94
2021/12/08 15:04:30;;;;;;;90.70;24.23;;;;;;;;;;5001655;28;21415;-95
2021/12/08 15:06:57;;;;;;;84.73;21.67;;;;;;;;;;5004728;28;20453;-94